createdAt,value
2019-01-06T00:00:19.781Z,7.9
2019-01-06T00:01:21.191Z,7.8
2019-01-06T00:02:22.575Z,7.8
2019-01-06T00:03:23.647Z,7.8
2019-01-06T00:04:25.288Z,7.8
2019-01-06T00:05:26.835Z,7.8
2019-01-06T00:06:28.207Z,7.8
2019-01-06T00:07:29.751Z,7.8
2019-01-06T00:08:31.158Z,7.8
2019-01-06T00:09:32.707Z,7.8
2019-01-06T00:10:34.094Z,7.8
2019-01-06T00:11:35.337Z,7.9
2019-01-06T00:12:36.255Z,7.9
2019-01-06T00:13:37.304Z,7.8
2019-01-06T00:14:38.665Z,7.8
2019-01-06T00:15:40.185Z,7.8
2019-01-06T00:16:41.592Z,7.8
2019-01-06T00:17:43.229Z,7.8
2019-01-06T00:18:44.615Z,7.9
2019-01-06T00:19:46.166Z,7.9
2019-01-06T00:20:47.562Z,7.9
2019-01-06T00:21:48.811Z,7.9
2019-01-06T00:22:50.376Z,7.8
2019-01-06T00:23:51.931Z,7.9
2019-01-06T00:24:53.463Z,7.8
2019-01-06T00:25:55.007Z,7.9
2019-01-06T00:26:56.551Z,7.8
2019-01-06T00:27:57.935Z,7.8
2019-01-06T00:28:59.476Z,7.8
2019-01-06T00:30:03.454Z,7.8
2019-01-06T00:31:04.836Z,7.8
2019-01-06T00:32:06.235Z,7.9
2019-01-06T00:33:07.816Z,7.9
2019-01-06T00:34:09.209Z,7.9
2019-01-06T00:35:10.761Z,7.9
2019-01-06T00:36:12.336Z,7.9
2019-01-06T00:37:13.411Z,7.9
2019-01-06T00:38:14.794Z,7.8
2019-01-06T00:39:16.329Z,7.8
2019-01-06T00:40:17.569Z,7.8
2019-01-06T00:41:19.092Z,7.8
2019-01-06T00:42:20.485Z,7.8
2019-01-06T00:43:21.874Z,7.8
2019-01-06T00:44:23.429Z,7.8
2019-01-06T00:45:24.969Z,7.8
2019-01-06T00:46:26.373Z,7.8
2019-01-06T00:47:27.896Z,7.7
2019-01-06T00:48:29.456Z,7.8
2019-01-06T00:49:30.845Z,7.8
2019-01-06T00:50:32.233Z,7.8
2019-01-06T00:51:33.623Z,7.8
2019-01-06T00:52:35.175Z,7.8
2019-01-06T00:53:36.795Z,7.8
2019-01-06T00:54:38.203Z,7.8
2019-01-06T00:55:39.711Z,7.8
2019-01-06T00:56:40.935Z,7.8
2019-01-06T00:57:42.463Z,7.8
2019-01-06T00:58:43.843Z,7.8
2019-01-06T00:59:45.218Z,7.8
2019-01-06T01:00:46.776Z,7.8
2019-01-06T01:01:47.989Z,7.8
2019-01-06T01:02:49.375Z,7.8
2019-01-06T01:03:50.767Z,7.8
2019-01-06T01:04:51.983Z,7.8
2019-01-06T01:05:53.536Z,7.8
2019-01-06T01:06:54.923Z,7.8
2019-01-06T01:07:56.295Z,7.8
2019-01-06T01:08:57.704Z,7.8
2019-01-06T01:09:59.106Z,7.8
2019-01-06T01:11:00.653Z,7.8
2019-01-06T01:12:02.028Z,7.8
2019-01-06T01:13:03.565Z,7.8
2019-01-06T01:14:04.793Z,7.8
2019-01-06T01:15:06.360Z,7.8
2019-01-06T01:16:07.883Z,7.8
2019-01-06T01:17:09.411Z,7.9
2019-01-06T01:18:10.936Z,7.9
2019-01-06T01:19:12.500Z,7.9
2019-01-06T01:20:14.057Z,7.9
2019-01-06T01:21:15.445Z,7.1
2019-01-06T01:22:16.660Z,7.2
2019-01-06T01:23:18.196Z,7.3
2019-01-06T01:24:19.409Z,7.3
2019-01-06T01:25:20.945Z,7.3
2019-01-06T01:26:22.471Z,7.3
2019-01-06T01:27:23.841Z,7.3
2019-01-06T01:28:25.370Z,7.3
2019-01-06T01:29:26.899Z,7.4
2019-01-06T01:30:28.275Z,7.4
2019-01-06T01:31:29.785Z,7.4
2019-01-06T01:32:31.315Z,7.4
2019-01-06T01:33:32.681Z,7.4
2019-01-06T01:34:34.191Z,7.4
2019-01-06T01:35:35.733Z,7.4
2019-01-06T01:36:37.285Z,7.4
2019-01-06T01:37:38.809Z,7.4
2019-01-06T01:38:40.365Z,7.5
2019-01-06T01:39:41.881Z,7.5
2019-01-06T01:40:43.413Z,7.5
2019-01-06T01:41:44.784Z,7.5
2019-01-06T01:42:46.010Z,7.5
2019-01-06T01:43:47.535Z,7.5
2019-01-06T01:44:48.815Z,7.5
2019-01-06T01:45:50.216Z,7.6
2019-01-06T01:46:51.759Z,7.6
2019-01-06T01:47:53.285Z,7.6
2019-01-06T01:48:54.818Z,7.5
2019-01-06T01:49:56.186Z,7.5
2019-01-06T01:50:57.393Z,7.5
2019-01-06T01:51:58.766Z,7.5
2019-01-06T01:52:59.859Z,7.5
2019-01-06T01:54:01.376Z,7.5
2019-01-06T01:55:02.905Z,7.5
2019-01-06T01:56:04.275Z,7.5
2019-01-06T01:57:05.819Z,7.6
2019-01-06T01:58:07.197Z,7.6
2019-01-06T01:59:08.571Z,7.6
2019-01-06T02:00:10.125Z,7.6
2019-01-06T02:01:11.645Z,7.7
2019-01-06T02:02:13.167Z,7.7
2019-01-06T02:03:14.558Z,7.7
2019-01-06T02:04:15.926Z,7.7
2019-01-06T02:05:17.319Z,7.7
2019-01-06T02:06:18.863Z,7.7
2019-01-06T02:07:20.225Z,7.6
2019-01-06T02:08:21.756Z,7.6
2019-01-06T02:09:23.285Z,7.5
2019-01-06T02:10:24.815Z,7.4
2019-01-06T02:11:26.337Z,7.2
2019-01-06T02:12:27.872Z,7.2
2019-01-06T02:13:29.288Z,7.2
2019-01-06T02:14:30.625Z,7.2
2019-01-06T02:15:32.129Z,7.2
2019-01-06T02:16:33.653Z,7.2
2019-01-06T02:17:34.874Z,7.2
2019-01-06T02:18:36.224Z,7.2
2019-01-06T02:19:37.611Z,7.2
2019-01-06T02:20:38.979Z,7.1
2019-01-06T02:21:40.516Z,7.2
2019-01-06T02:22:42.074Z,7.1
2019-01-06T02:23:43.629Z,7.2
2019-01-06T02:24:45.006Z,7.1
2019-01-06T02:25:46.382Z,7.1
2019-01-06T02:26:47.914Z,7.1
2019-01-06T02:27:49.127Z,7.1
2019-01-06T02:28:50.676Z,7.1
2019-01-06T02:29:52.203Z,7.1
2019-01-06T02:30:53.773Z,7.1
2019-01-06T02:31:55.054Z,7.1
2019-01-06T02:32:56.598Z,7.1
2019-01-06T02:33:57.983Z,7.1
2019-01-06T02:34:59.425Z,7.1
2019-01-06T02:36:00.967Z,7.1
2019-01-06T02:37:02.360Z,7.1
2019-01-06T02:38:03.898Z,7.1
2019-01-06T02:39:05.658Z,7.1
2019-01-06T02:40:07.055Z,7.1
2019-01-06T02:41:08.590Z,7.1
2019-01-06T02:42:09.996Z,7.1
2019-01-06T02:43:11.585Z,7.1
2019-01-06T02:44:13.055Z,7.1
2019-01-06T02:45:14.438Z,7.2
2019-01-06T02:46:15.815Z,7.2
2019-01-06T02:47:17.347Z,7.2
2019-01-06T02:48:18.712Z,7.2
2019-01-06T02:49:20.103Z,7.2
2019-01-06T02:50:21.480Z,7.2
2019-01-06T02:51:23.007Z,7.2
2019-01-06T02:52:24.251Z,7.2
2019-01-06T02:53:25.791Z,7.2
2019-01-06T02:54:27.014Z,7.2
2019-01-06T02:55:28.400Z,7.2
2019-01-06T02:56:29.926Z,7.2
2019-01-06T02:57:31.005Z,7.2
2019-01-06T02:58:32.586Z,7.2
2019-01-06T02:59:33.967Z,7.2
2019-01-06T03:00:35.507Z,7.2
2019-01-06T03:01:36.600Z,7.2
2019-01-06T03:02:37.990Z,7.2
2019-01-06T03:03:39.566Z,7.2
2019-01-06T03:04:40.941Z,7.2
2019-01-06T03:05:42.497Z,7.3
2019-01-06T03:06:44.082Z,7.3
2019-01-06T03:07:45.635Z,7.3
2019-01-06T03:08:47.176Z,7.4
2019-01-06T03:09:48.722Z,7.4
2019-01-06T03:10:50.156Z,7.4
2019-01-06T03:11:51.524Z,7.4
2019-01-06T03:12:52.747Z,7.4
2019-01-06T03:13:54.376Z,7.4
2019-01-06T03:14:55.744Z,7.4
2019-01-06T03:15:57.124Z,7.4
2019-01-06T03:16:58.488Z,7.4
2019-01-06T03:18:00.036Z,7.4
2019-01-06T03:19:01.423Z,7.4
2019-01-06T03:20:02.886Z,7.4
2019-01-06T03:21:04.097Z,7.5
2019-01-06T03:22:05.455Z,7.5
2019-01-06T03:23:06.986Z,7.5
2019-01-06T03:24:08.365Z,7.5
2019-01-06T03:25:09.760Z,7.5
2019-01-06T03:26:11.279Z,7.5
2019-01-06T03:27:12.816Z,7.5
2019-01-06T03:28:14.343Z,7.5
2019-01-06T03:29:15.417Z,7.5
2019-01-06T03:30:16.960Z,7.5
2019-01-06T03:31:18.546Z,7.5
2019-01-06T03:32:20.183Z,7.5
2019-01-06T03:33:21.703Z,7.5
2019-01-06T03:34:23.328Z,7.5
2019-01-06T03:35:24.712Z,7.4
2019-01-06T03:36:26.097Z,7.4
2019-01-06T03:37:27.652Z,7.4
2019-01-06T03:38:29.188Z,7.4
2019-01-06T03:39:30.810Z,7.4
2019-01-06T03:40:32.405Z,7.5
2019-01-06T03:41:33.970Z,7.5
2019-01-06T03:42:35.525Z,7.5
2019-01-06T03:43:36.738Z,7.5
2019-01-06T03:44:38.116Z,7.5
2019-01-06T03:45:39.181Z,7.5
2019-01-06T03:46:40.584Z,7.5
2019-01-06T03:47:42.128Z,7.5
2019-01-06T03:48:43.644Z,7.6
2019-01-06T03:49:45.168Z,7.6
2019-01-06T03:50:46.537Z,7.6
2019-01-06T03:51:48.097Z,7.7
2019-01-06T03:52:49.626Z,7.7
2019-01-06T03:53:51.194Z,7.7
2019-01-06T03:54:52.560Z,7.7
2019-01-06T03:55:54.096Z,7.7
2019-01-06T03:56:55.324Z,7.7
2019-01-06T03:57:56.838Z,7.7
2019-01-06T03:58:58.378Z,7.7
2019-01-06T04:00:02.823Z,7.7
2019-01-06T04:01:04.383Z,7.7
2019-01-06T04:02:05.911Z,7.7
2019-01-06T04:03:07.142Z,7.7
2019-01-06T04:04:08.674Z,7.7
2019-01-06T04:05:10.238Z,7.7
2019-01-06T04:06:11.477Z,7.7
2019-01-06T04:07:13.024Z,7.7
2019-01-06T04:08:14.556Z,7.8
2019-01-06T04:09:16.084Z,7.8
2019-01-06T04:10:17.662Z,7.8
2019-01-06T04:11:19.048Z,7.8
2019-01-06T04:12:21.215Z,7.8
2019-01-06T04:13:22.654Z,7.8
2019-01-06T04:14:24.049Z,7.8
2019-01-06T04:15:25.494Z,7.7
2019-01-06T04:16:26.725Z,7.7
2019-01-06T04:17:28.275Z,7.6
2019-01-06T04:18:29.814Z,7.5
2019-01-06T04:19:31.343Z,7.4
2019-01-06T04:20:32.890Z,7.3
2019-01-06T04:21:34.490Z,7.2
2019-01-06T04:22:35.706Z,7.2
2019-01-06T04:23:37.248Z,7.2
2019-01-06T04:24:38.838Z,7.1
2019-01-06T04:25:40.444Z,7.2
2019-01-06T04:26:41.961Z,7.2
2019-01-06T04:27:43.574Z,7.2
2019-01-06T04:28:44.957Z,7.2
2019-01-06T04:29:46.500Z,7.2
2019-01-06T04:30:48.050Z,7.2
2019-01-06T04:31:49.587Z,7.2
2019-01-06T04:32:51.127Z,7.2
2019-01-06T04:33:52.668Z,7.2
2019-01-06T04:34:54.240Z,7.3
2019-01-06T04:35:55.760Z,7.3
2019-01-06T04:36:57.153Z,7.4
2019-01-06T04:37:58.680Z,7.4
2019-01-06T04:39:00.449Z,7.5
2019-01-06T04:40:01.994Z,7.6
2019-01-06T04:41:03.356Z,7.6
2019-01-06T04:42:04.727Z,7.7
2019-01-06T04:43:06.259Z,7.7
2019-01-06T04:44:07.775Z,7.8
2019-01-06T04:45:09.160Z,7.8
2019-01-06T04:46:10.557Z,7.9
2019-01-06T04:47:11.935Z,7.9
2019-01-06T04:48:13.331Z,7.9
2019-01-06T04:49:14.784Z,7.9
2019-01-06T04:50:16.348Z,7.9
2019-01-06T04:51:17.719Z,7.9
2019-01-06T04:52:19.095Z,7.9
2019-01-06T04:53:20.460Z,7.9
2019-01-06T04:54:22.028Z,7.9
2019-01-06T04:55:23.566Z,7.9
2019-01-06T04:56:25.110Z,7.9
2019-01-06T04:57:26.630Z,7.9
2019-01-06T04:58:28.153Z,7.9
2019-01-06T04:59:29.655Z,7.9
2019-01-06T05:00:30.908Z,7.9
2019-01-06T05:01:32.453Z,7.9
2019-01-06T05:02:33.845Z,7.9
2019-01-06T05:03:35.412Z,7.9
2019-01-06T05:04:36.775Z,7.9
2019-01-06T05:05:38.335Z,7.9
2019-01-06T05:06:39.869Z,7.9
2019-01-06T05:07:41.405Z,7.9
2019-01-06T05:08:42.922Z,7.9
2019-01-06T05:09:44.484Z,7.8
2019-01-06T05:10:46.023Z,7.8
2019-01-06T05:11:47.415Z,7.8
2019-01-06T05:12:48.778Z,7.8
2019-01-06T05:13:50.323Z,7.9
2019-01-06T05:14:51.872Z,7.8
2019-01-06T05:15:53.384Z,7.8
2019-01-06T05:16:54.919Z,7.8
2019-01-06T05:17:56.448Z,7.8
2019-01-06T05:18:57.984Z,7.7
2019-01-06T05:19:59.514Z,7.7
2019-01-06T05:21:01.045Z,7.7
2019-01-06T05:22:02.454Z,7.7
2019-01-06T05:23:03.989Z,7.7
2019-01-06T05:24:05.518Z,7.7
2019-01-06T05:25:06.932Z,7.7
2019-01-06T05:26:08.325Z,7.7
2019-01-06T05:27:09.856Z,7.7
2019-01-06T05:28:11.237Z,7.6
2019-01-06T05:29:12.604Z,7.6
2019-01-06T05:30:13.994Z,7.6
2019-01-06T05:31:15.366Z,7.5
2019-01-06T05:32:16.978Z,7.5
2019-01-06T05:33:18.497Z,7.4
2019-01-06T05:34:20.042Z,7.4
2019-01-06T05:35:21.594Z,7.4
2019-01-06T05:36:23.124Z,7.4
2019-01-06T05:37:24.652Z,7.3
2019-01-06T05:38:26.184Z,7.3
2019-01-06T05:39:27.724Z,7.2
2019-01-06T05:40:29.104Z,7.2
2019-01-06T05:41:30.653Z,7.2
2019-01-06T05:42:32.035Z,7.2
2019-01-06T05:43:33.568Z,7.2
2019-01-06T05:44:35.099Z,7.2
2019-01-06T05:45:36.481Z,7.2
2019-01-06T05:46:37.674Z,7.2
2019-01-06T05:47:39.046Z,7.2
2019-01-06T05:48:40.431Z,7.2
2019-01-06T05:49:41.806Z,7.2
2019-01-06T05:50:43.353Z,7.2
2019-01-06T05:51:44.645Z,7.2
2019-01-06T05:52:46.183Z,7.2
2019-01-06T05:53:47.406Z,7.2
2019-01-06T05:54:48.926Z,7.2
2019-01-06T05:55:50.306Z,7.2
2019-01-06T05:56:51.826Z,7.2
2019-01-06T05:57:53.176Z,7.2
2019-01-06T05:58:54.714Z,7.2
2019-01-06T05:59:56.119Z,7.2
2019-01-06T06:00:57.498Z,7.3
2019-01-06T06:01:59.049Z,7.3
2019-01-06T06:03:00.595Z,7.3
2019-01-06T06:04:02.135Z,7.4
2019-01-06T06:05:03.654Z,7.4
2019-01-06T06:06:05.173Z,7.4
2019-01-06T06:07:12.675Z,7.4
2019-01-06T06:08:13.905Z,7.4
2019-01-06T06:09:15.416Z,7.3
2019-01-06T06:10:16.775Z,7.2
2019-01-06T06:11:18.157Z,7.2
2019-01-06T06:12:19.674Z,7.2
2019-01-06T06:13:20.910Z,7.2
2019-01-06T06:14:22.171Z,7.2
2019-01-06T06:15:23.587Z,7.2
2019-01-06T06:16:25.004Z,7.1
2019-01-06T06:17:26.654Z,7.2
2019-01-06T06:18:28.057Z,7.2
2019-01-06T06:19:29.447Z,7.2
2019-01-06T06:20:30.992Z,7.2
2019-01-06T06:21:32.521Z,7.2
2019-01-06T06:22:34.042Z,7.2
2019-01-06T06:23:35.405Z,7.2
2019-01-06T06:24:37.739Z,7.2
2019-01-06T06:25:39.084Z,7.2
2019-01-06T06:26:40.575Z,7.2
2019-01-06T06:27:42.134Z,7.3
2019-01-06T06:28:43.244Z,7.3
2019-01-06T06:29:44.790Z,7.4
2019-01-06T06:30:46.322Z,7.5
2019-01-06T06:31:47.887Z,7.6
2019-01-06T06:32:49.268Z,7.6
2019-01-06T06:33:50.795Z,7.7
2019-01-06T06:34:52.336Z,7.8
2019-01-06T06:35:53.825Z,7.9
2019-01-06T06:36:55.038Z,7.9
2019-01-06T06:37:56.567Z,7.3
2019-01-06T06:38:58.079Z,7.4
2019-01-06T06:40:14.238Z,7.5
2019-01-06T06:41:15.797Z,7.7
2019-01-06T06:42:17.168Z,7.8
2019-01-06T06:43:18.686Z,7.8
2019-01-06T06:44:20.062Z,7.9
2019-01-06T06:45:21.583Z,7.9
2019-01-06T06:46:23.113Z,7.9
2019-01-06T06:47:24.474Z,7.8
2019-01-06T06:48:25.858Z,7.8
2019-01-06T06:49:26.922Z,7.8
2019-01-06T06:50:28.344Z,7.8
2019-01-06T06:51:29.735Z,7.7
2019-01-06T06:52:31.267Z,7.7
2019-01-06T06:53:32.317Z,7.6
2019-01-06T06:54:33.849Z,7.6
2019-01-06T06:55:35.077Z,7.5
2019-01-06T06:56:36.469Z,7.5
2019-01-06T06:57:37.844Z,7.5
2019-01-06T06:58:39.465Z,7.5
2019-01-06T06:59:40.839Z,7.4
2019-01-06T07:00:42.070Z,7.4
2019-01-06T07:01:43.480Z,7.4
2019-01-06T07:02:44.863Z,7.3
2019-01-06T07:03:46.245Z,7.3
2019-01-06T07:04:47.605Z,7.3
2019-01-06T07:05:49.134Z,7.3
2019-01-06T07:06:50.504Z,7.3
2019-01-06T07:07:52.044Z,7.3
2019-01-06T07:08:53.395Z,7.3
2019-01-06T07:09:54.761Z,7.3
2019-01-06T07:10:56.145Z,7.4
2019-01-06T07:11:57.509Z,7.4
2019-01-06T07:12:59.051Z,7.5
2019-01-06T07:14:00.427Z,7.6
2019-01-06T07:15:01.997Z,7.7
2019-01-06T07:16:03.375Z,7.8
2019-01-06T07:17:04.595Z,7.9
2019-01-06T07:18:05.957Z,7.9
2019-01-06T07:19:07.346Z,7.9
2019-01-06T07:20:08.889Z,7.9
2019-01-06T07:21:10.291Z,7.2
2019-01-06T07:22:11.853Z,7.3
2019-01-06T07:23:13.231Z,7.4
2019-01-06T07:24:14.615Z,7.6
2019-01-06T07:25:16.157Z,7.7
2019-01-06T07:26:17.689Z,7.8
2019-01-06T07:27:19.233Z,7.9
2019-01-06T07:28:20.825Z,7.9
2019-01-06T07:29:22.198Z,7.9
2019-01-06T07:30:23.558Z,7.1
2019-01-06T07:31:24.927Z,7.3
2019-01-06T07:32:26.305Z,7.4
2019-01-06T07:33:27.825Z,7.4
2019-01-06T07:34:29.195Z,7.5
2019-01-06T07:35:30.744Z,7.5
2019-01-06T07:36:32.115Z,7.5
2019-01-06T07:37:33.492Z,7.6
2019-01-06T07:38:34.845Z,7.6
2019-01-06T07:39:36.370Z,7.6
2019-01-06T07:40:37.919Z,7.7
2019-01-06T07:41:39.330Z,7.7
2019-01-06T07:42:40.855Z,7.7
2019-01-06T07:43:42.227Z,7.8
2019-01-06T07:44:43.779Z,7.8
2019-01-06T07:45:45.145Z,7.8
2019-01-06T07:46:46.517Z,7.8
2019-01-06T07:47:48.040Z,7.8
2019-01-06T07:48:49.409Z,7.8
2019-01-06T07:49:50.875Z,7.8
2019-01-06T07:50:52.489Z,7.8
2019-01-06T07:51:53.558Z,7.7
2019-01-06T07:52:55.078Z,7.7
2019-01-06T07:53:56.623Z,7.6
2019-01-06T07:54:58.156Z,7.5
2019-01-06T07:55:59.553Z,7.4
2019-01-06T07:57:01.089Z,7.3
2019-01-06T07:58:02.465Z,7.2
2019-01-06T07:59:03.845Z,7.2
2019-01-06T08:00:05.217Z,7.2
2019-01-06T08:01:06.588Z,7.2
2019-01-06T08:02:08.135Z,7.2
2019-01-06T08:03:09.660Z,7.2
2019-01-06T08:04:11.161Z,7.2
2019-01-06T08:05:12.706Z,7.2
2019-01-06T08:06:14.233Z,7.2
2019-01-06T08:07:15.758Z,7.2
2019-01-06T08:08:17.286Z,7.2
2019-01-06T08:09:18.665Z,7.2
2019-01-06T08:10:20.075Z,7.2
2019-01-06T08:11:21.610Z,7.2
2019-01-06T08:12:23.012Z,7.2
2019-01-06T08:13:24.249Z,7.2
2019-01-06T08:14:25.815Z,7.2
2019-01-06T08:15:27.205Z,7.3
2019-01-06T08:16:28.699Z,7.3
2019-01-06T08:17:30.255Z,7.3
2019-01-06T08:18:31.642Z,7.3
2019-01-06T08:19:33.079Z,7.4
2019-01-06T08:20:34.480Z,7.4
2019-01-06T08:21:35.872Z,7.4
2019-01-06T08:22:37.251Z,7.4
2019-01-06T08:23:38.554Z,7.5
2019-01-06T08:24:40.085Z,7.6
2019-01-06T08:25:41.607Z,7.6
2019-01-06T08:26:43.135Z,7.7
2019-01-06T08:27:44.493Z,7.8
2019-01-06T08:28:45.843Z,7.8
2019-01-06T08:29:47.225Z,7.8
2019-01-06T08:30:48.776Z,7.8
2019-01-06T08:31:50.315Z,7.8
2019-01-06T08:32:51.852Z,7.8
2019-01-06T08:33:53.536Z,7.9
2019-01-06T08:34:54.925Z,7.9
2019-01-06T08:35:56.457Z,7.9
2019-01-06T08:36:57.994Z,7.9
2019-01-06T08:37:59.373Z,7.8
2019-01-06T08:39:00.925Z,7.8
2019-01-06T08:40:02.465Z,7.8
2019-01-06T08:41:03.782Z,7.8
2019-01-06T08:42:05.180Z,7.8
2019-01-06T08:43:06.575Z,7.8
2019-01-06T08:44:08.045Z,7.8
2019-01-06T08:45:09.577Z,7.8
2019-01-06T08:46:10.797Z,7.8
2019-01-06T08:47:12.210Z,7.8
2019-01-06T08:48:13.593Z,7.8
2019-01-06T08:49:15.000Z,7.8
2019-01-06T08:50:16.618Z,7.8
2019-01-06T08:51:18.005Z,7.8
2019-01-06T08:52:19.557Z,7.8
2019-01-06T08:53:20.786Z,7.8
2019-01-06T08:54:22.321Z,7.7
2019-01-06T08:55:23.714Z,7.7
2019-01-06T08:56:25.283Z,7.7
2019-01-06T08:57:26.825Z,7.7
2019-01-06T08:58:28.200Z,7.7
2019-01-06T08:59:29.580Z,7.7
2019-01-06T09:00:30.974Z,7.7
2019-01-06T09:01:32.514Z,7.7
2019-01-06T09:02:33.920Z,7.7
2019-01-06T09:03:36.681Z,7.7
2019-01-06T09:04:38.097Z,7.8
2019-01-06T09:05:39.631Z,7.8
2019-01-06T09:06:41.174Z,7.8
2019-01-06T09:07:42.737Z,7.8
2019-01-06T09:08:46.004Z,7.7
2019-01-06T09:09:47.376Z,7.6
2019-01-06T09:10:48.755Z,7.6
2019-01-06T09:11:50.138Z,7.6
2019-01-06T09:12:51.361Z,7.6
2019-01-06T09:13:52.912Z,7.6
2019-01-06T09:14:54.351Z,7.6
2019-01-06T09:15:55.932Z,7.5
2019-01-06T09:16:57.490Z,7.5
2019-01-06T09:17:58.885Z,7.5
2019-01-06T09:19:00.433Z,7.4
2019-01-06T09:20:01.997Z,7.4
2019-01-06T09:21:03.543Z,7.4
2019-01-06T09:22:04.930Z,7.4
2019-01-06T09:23:06.482Z,7.4
2019-01-06T09:24:08.025Z,7.4
2019-01-06T09:25:11.412Z,7.4
2019-01-06T09:26:12.783Z,7.4
2019-01-06T09:27:14.164Z,7.4
2019-01-06T09:28:15.575Z,7.4
2019-01-06T09:29:17.137Z,7.4
2019-01-06T09:30:18.365Z,7.4
2019-01-06T09:31:19.928Z,7.3
2019-01-06T09:32:21.493Z,7.3
2019-01-06T09:33:22.885Z,7.3
2019-01-06T09:34:24.434Z,7.3
2019-01-06T09:35:25.658Z,7.3
2019-01-06T09:36:27.204Z,7.3
2019-01-06T09:37:28.766Z,7.3
2019-01-06T09:38:30.505Z,7.3
2019-01-06T09:39:31.901Z,7.4
2019-01-06T09:40:33.372Z,7.4
2019-01-06T09:41:34.616Z,7.4
2019-01-06T09:42:36.245Z,7.4
2019-01-06T09:43:37.785Z,7.3
2019-01-06T09:44:39.348Z,7.2
2019-01-06T09:45:40.892Z,7.2
2019-01-06T09:46:42.439Z,7.2
2019-01-06T09:47:43.980Z,7.2
2019-01-06T09:48:45.195Z,7.1
2019-01-06T09:49:46.422Z,7.1
2019-01-06T09:50:47.975Z,7.1
2019-01-06T09:51:49.369Z,7.1
2019-01-06T09:52:50.755Z,7.2
2019-01-06T09:53:51.988Z,7.1
2019-01-06T09:54:53.529Z,7.1
2019-01-06T09:55:55.118Z,7.1
2019-01-06T09:56:56.650Z,7.2
2019-01-06T09:57:58.214Z,7.1
2019-01-06T09:58:59.770Z,7.2
2019-01-06T10:00:01.375Z,7.2
2019-01-06T10:01:02.785Z,7.2
2019-01-06T10:02:04.371Z,7.2
2019-01-06T10:03:05.806Z,7.2
2019-01-06T10:04:07.593Z,7.2
2019-01-06T10:05:09.130Z,7.2
2019-01-06T10:06:10.379Z,7.3
2019-01-06T10:07:11.851Z,7.3
2019-01-06T10:08:13.421Z,7.4
2019-01-06T10:09:14.972Z,7.4
2019-01-06T10:10:16.362Z,7.5
2019-01-06T10:11:17.743Z,7.6
2019-01-06T10:12:19.148Z,7.7
2019-01-06T10:13:20.410Z,7.8
2019-01-06T10:14:21.991Z,7.9
2019-01-06T10:15:23.537Z,7.6
2019-01-06T10:16:24.946Z,7.8
2019-01-06T10:17:26.390Z,7.9
2019-01-06T10:18:27.790Z,7.2
2019-01-06T10:19:29.034Z,7.4
2019-01-06T10:20:30.588Z,7.6
2019-01-06T10:21:32.165Z,7.8
2019-01-06T10:22:33.560Z,7.9
2019-01-06T10:24:07.024Z,7.9
2019-01-06T10:25:08.638Z,7.4
2019-01-06T10:26:10.027Z,7.5
2019-01-06T10:27:11.665Z,7.6
2019-01-06T10:28:13.054Z,7.7
2019-01-06T10:29:14.287Z,7.7
2019-01-06T10:30:15.843Z,7.8
2019-01-06T10:31:17.455Z,7.8
2019-01-06T10:32:18.838Z,7.9
2019-01-06T10:33:20.251Z,7.9
2019-01-06T10:34:21.814Z,7.9
2019-01-06T10:35:23.425Z,7.9
2019-01-06T10:36:24.403Z,7.9
2019-01-06T10:37:26.016Z,7.9
2019-01-06T10:38:27.599Z,7.9
2019-01-06T10:39:29.165Z,7.9
2019-01-06T10:40:30.742Z,7.9
2019-01-06T10:41:32.278Z,7.9
2019-01-06T10:42:33.562Z,7.8
2019-01-06T10:43:34.954Z,7.8
2019-01-06T10:44:36.326Z,7.8
2019-01-06T10:45:37.701Z,7.8
2019-01-06T10:46:39.354Z,7.7
2019-01-06T10:47:40.906Z,7.7
2019-01-06T10:48:41.974Z,7.7
2019-01-06T10:49:43.384Z,7.7
2019-01-06T10:50:45.047Z,7.7
2019-01-06T10:51:46.449Z,7.7
2019-01-06T10:52:48.015Z,7.7
2019-01-06T10:53:49.250Z,7.7
2019-01-06T10:54:50.646Z,7.6
2019-01-06T10:55:52.210Z,7.6
2019-01-06T10:56:53.760Z,7.7
2019-01-06T10:57:55.314Z,7.7
2019-01-06T10:58:56.881Z,7.7
2019-01-06T10:59:58.306Z,7.7
2019-01-06T11:00:59.717Z,7.7
2019-01-06T11:02:01.301Z,7.7
2019-01-06T11:03:02.983Z,7.6
2019-01-06T11:04:04.580Z,7.6
2019-01-06T11:05:05.974Z,7.5
2019-01-06T11:06:07.370Z,7.5
2019-01-06T11:07:08.755Z,7.5
2019-01-06T11:08:10.390Z,7.5
2019-01-06T11:09:11.937Z,7.5
2019-01-06T11:10:13.500Z,7.5
2019-01-06T11:11:14.890Z,7.4
2019-01-06T11:12:16.270Z,7.4
2019-01-06T11:13:17.890Z,7.4
2019-01-06T11:14:18.963Z,7.4
2019-01-06T11:15:20.521Z,7.4
2019-01-06T11:16:21.918Z,7.4
2019-01-06T11:17:23.484Z,7.3
2019-01-06T11:18:24.944Z,7.3
2019-01-06T11:19:26.474Z,7.3
2019-01-06T11:20:28.001Z,7.3
2019-01-06T11:21:29.401Z,7.3
2019-01-06T11:22:30.614Z,7.4
2019-01-06T11:23:32.188Z,7.4
2019-01-06T11:24:33.444Z,7.4
2019-01-06T11:25:34.984Z,7.5
2019-01-06T11:26:36.366Z,7.5
2019-01-06T11:27:37.794Z,7.4
2019-01-06T11:28:39.168Z,7.4
2019-01-06T11:29:40.390Z,7.4
2019-01-06T11:30:41.778Z,7.3
2019-01-06T11:31:43.246Z,7.2
2019-01-06T11:32:44.772Z,7.2
2019-01-06T11:33:46.309Z,7.2
2019-01-06T11:34:47.848Z,7.2
2019-01-06T11:35:49.256Z,7.2
2019-01-06T11:36:50.792Z,7.2
2019-01-06T11:37:52.175Z,7.2
2019-01-06T11:38:53.784Z,7.2
2019-01-06T11:39:55.319Z,7.2
2019-01-06T11:40:56.858Z,7.1
2019-01-06T11:41:58.395Z,7.2
2019-01-06T11:42:59.935Z,7.2
2019-01-06T11:44:01.535Z,7.2
2019-01-06T11:45:03.164Z,7.2
2019-01-06T11:46:04.724Z,7.2
2019-01-06T11:47:05.999Z,7.2
2019-01-06T11:48:07.404Z,7.2
2019-01-06T11:49:09.024Z,7.3
2019-01-06T11:50:10.571Z,7.3
2019-01-06T11:51:12.135Z,7.4
2019-01-06T11:52:13.373Z,7.5
2019-01-06T11:53:14.771Z,7.6
2019-01-06T11:54:16.148Z,7.6
2019-01-06T11:55:17.688Z,7.7
2019-01-06T11:56:19.254Z,7.7
2019-01-06T11:57:20.804Z,7.8
2019-01-06T11:58:22.041Z,7.9
2019-01-06T11:59:23.594Z,7.9
2019-01-06T12:00:25.160Z,7.1
2019-01-06T12:01:26.716Z,7.3
2019-01-06T12:02:28.281Z,7.4
2019-01-06T12:03:29.835Z,7.4
2019-01-06T12:04:31.372Z,7.5
2019-01-06T12:05:32.747Z,7.6
2019-01-06T12:06:34.148Z,7.6
2019-01-06T12:07:35.522Z,7.7
2019-01-06T12:08:42.638Z,7.8
2019-01-06T12:09:44.028Z,7.8
2019-01-06T12:10:45.560Z,7.8
2019-01-06T12:11:47.097Z,7.8
2019-01-06T12:12:48.655Z,7.8
2019-01-06T12:13:50.221Z,7.8
2019-01-06T12:14:51.621Z,7.8
2019-01-06T12:15:53.025Z,7.8
2019-01-06T12:16:54.435Z,7.8
2019-01-06T12:17:56.008Z,7.8
2019-01-06T12:18:57.065Z,7.8
2019-01-06T12:19:58.621Z,7.8
2019-01-06T12:21:00.043Z,7.8
2019-01-06T12:22:01.579Z,7.8
2019-01-06T12:23:03.133Z,7.8
2019-01-06T12:24:04.686Z,7.8
2019-01-06T12:25:06.061Z,7.8
2019-01-06T12:26:07.519Z,7.8
2019-01-06T12:27:08.777Z,7.9
2019-01-06T12:28:10.158Z,7.9
2019-01-06T12:29:11.787Z,7.9
2019-01-06T12:30:13.184Z,7.9
2019-01-06T12:31:14.746Z,7.8
2019-01-06T12:32:16.307Z,7.8
2019-01-06T12:33:17.710Z,7.8
2019-01-06T12:34:19.296Z,7.8
2019-01-06T12:35:20.562Z,7.8
2019-01-06T12:36:21.804Z,7.8
2019-01-06T12:37:23.414Z,7.7
2019-01-06T12:38:24.833Z,7.7
2019-01-06T12:39:26.331Z,7.7
2019-01-06T12:40:27.896Z,7.7
2019-01-06T12:41:29.165Z,7.7
2019-01-06T12:42:30.410Z,7.6
2019-01-06T12:43:31.802Z,7.6
2019-01-06T12:44:33.356Z,7.6
2019-01-06T12:45:34.777Z,7.6
2019-01-06T12:46:36.209Z,7.6
2019-01-06T12:47:37.615Z,7.6
2019-01-06T12:48:38.901Z,7.6
2019-01-06T12:49:40.305Z,7.6
2019-01-06T12:50:41.897Z,7.6
2019-01-06T12:51:45.421Z,7.7
2019-01-06T12:52:46.854Z,7.8
2019-01-06T12:53:48.139Z,7.8
2019-01-06T12:54:49.776Z,7.9
2019-01-06T12:55:50.905Z,7.9
2019-01-06T12:56:52.532Z,7.9
2019-01-06T12:57:54.119Z,7.9
2019-01-06T12:58:55.722Z,7.9
2019-01-06T12:59:57.186Z,7.8
2019-01-06T13:00:58.611Z,7.8
2019-01-06T13:02:00.035Z,7.7
2019-01-06T13:03:01.603Z,7.6
2019-01-06T13:04:02.998Z,7.5
2019-01-06T13:05:04.251Z,7.4
2019-01-06T13:06:05.791Z,7.3
2019-01-06T13:07:07.039Z,7.2
2019-01-06T13:08:08.456Z,7.2
2019-01-06T13:09:10.045Z,7.2
2019-01-06T13:10:11.621Z,7.2
2019-01-06T13:11:13.224Z,7.2
2019-01-06T13:12:14.661Z,7.2
2019-01-06T13:13:16.154Z,7.2
2019-01-06T13:14:17.607Z,7.2
2019-01-06T13:15:18.911Z,7.2
2019-01-06T13:16:20.335Z,7.2
2019-01-06T13:17:21.743Z,7.2
2019-01-06T13:18:23.142Z,7.2
2019-01-06T13:19:24.417Z,7.2
2019-01-06T13:20:26.075Z,7.2
2019-01-06T13:21:27.448Z,7.2
2019-01-06T13:22:28.870Z,7.2
2019-01-06T13:23:30.249Z,7.2
2019-01-06T13:24:31.775Z,7.3
2019-01-06T13:25:33.314Z,7.4
2019-01-06T13:26:34.747Z,7.5
2019-01-06T13:27:36.370Z,7.6
2019-01-06T13:28:37.924Z,7.8
2019-01-06T13:29:39.315Z,7.9
2019-01-06T13:30:40.871Z,7.9
2019-01-06T13:31:42.091Z,7.9
2019-01-06T13:32:43.493Z,7.9
2019-01-06T13:33:45.037Z,7.9
2019-01-06T13:34:46.415Z,7.9
2019-01-06T13:35:47.994Z,7.4
2019-01-06T13:36:49.435Z,7.5
2019-01-06T13:37:50.845Z,7.6
2019-01-06T13:38:52.433Z,7.8
2019-01-06T13:39:53.989Z,7.9
2019-01-06T13:41:04.485Z,7.9
2019-01-06T13:42:05.718Z,7.9
2019-01-06T13:43:07.289Z,7.9
2019-01-06T13:44:08.665Z,7.9
2019-01-06T13:45:10.042Z,7.9
2019-01-06T13:46:11.447Z,7.9
2019-01-06T13:47:12.831Z,7.1
2019-01-06T13:48:14.402Z,7.3
2019-01-06T13:49:15.821Z,7.4
2019-01-06T13:50:17.422Z,7.4
2019-01-06T13:51:18.806Z,7.5
2019-01-06T13:52:20.193Z,7.6
2019-01-06T13:53:21.750Z,7.6
2019-01-06T13:54:31.813Z,7.7
2019-01-06T13:55:33.377Z,7.7
2019-01-06T13:56:34.990Z,7.8
2019-01-06T13:57:36.373Z,7.7
2019-01-06T13:58:37.760Z,7.7
2019-01-06T13:59:39.338Z,7.7
2019-01-06T14:00:40.754Z,7.7
2019-01-06T14:01:42.151Z,7.7
2019-01-06T14:02:43.717Z,7.7
2019-01-06T14:03:45.282Z,7.7
2019-01-06T14:04:46.691Z,7.7
2019-01-06T14:05:48.268Z,7.7
2019-01-06T14:06:49.706Z,7.7
2019-01-06T14:07:51.378Z,7.7